createdAt,value
2017-10-09T00:01:59.999Z,4.67
2017-10-09T00:04:26.202Z,4.47
2017-10-09T00:06:52.406Z,4.23
2017-10-09T00:09:18.947Z,4.97
2017-10-09T00:11:45.190Z,5.63
2017-10-09T00:14:11.362Z,4.93
2017-10-09T00:16:38.633Z,5.20
2017-10-09T00:19:05.534Z,5.17
2017-10-09T00:21:31.709Z,4.60
2017-10-09T00:23:58.973Z,5.17
2017-10-09T00:26:25.166Z,4.50
2017-10-09T00:28:51.370Z,4.83
2017-10-09T00:31:17.971Z,5.10
2017-10-09T00:33:44.194Z,4.63
2017-10-09T00:36:10.439Z,4.80
2017-10-09T00:38:36.976Z,4.50
2017-10-09T00:41:03.158Z,4.50
2017-10-09T00:43:30.116Z,3.87
2017-10-09T00:45:57.357Z,4.40
2017-10-09T00:48:24.355Z,4.67
2017-10-09T00:50:50.574Z,4.10
2017-10-09T00:53:17.053Z,4.70
2017-10-09T00:55:43.261Z,4.60
2017-10-09T00:58:09.579Z,4.07
2017-10-09T01:00:36.094Z,4.10
2017-10-09T01:03:02.289Z,3.87
2017-10-09T01:05:28.544Z,4.40
2017-10-09T01:07:55.125Z,4.50
2017-10-09T01:10:21.329Z,5.63
2017-10-09T01:12:47.538Z,5.13
2017-10-09T01:15:14.075Z,5.23
2017-10-09T01:17:40.269Z,5.20
2017-10-09T01:20:06.513Z,5.23
2017-10-09T01:22:33.820Z,5.70
2017-10-09T01:25:00.037Z,6.47
2017-10-09T01:27:26.265Z,6.50
2017-10-09T01:29:52.924Z,7.23
2017-10-09T01:32:19.122Z,7.13
2017-10-09T01:34:45.471Z,7.60
2017-10-09T01:37:11.956Z,6.30
2017-10-09T01:39:38.893Z,7.27
2017-10-09T01:42:05.845Z,7.93
2017-10-09T01:44:33.161Z,9.20
2017-10-09T01:46:59.349Z,8.63
2017-10-09T01:49:25.524Z,7.80
2017-10-09T01:51:52.026Z,9.73
2017-10-09T01:54:18.259Z,9.03
2017-10-09T01:56:44.469Z,8.40
2017-10-09T01:59:10.839Z,8.57
2017-10-09T02:01:37.069Z,7.80
2017-10-09T02:04:03.999Z,8.53
2017-10-09T02:06:30.497Z,9.30
2017-10-09T02:08:56.669Z,8.73
2017-10-09T02:11:22.864Z,9.17
2017-10-09T02:13:49.428Z,9.60
2017-10-09T02:16:15.627Z,9.93
2017-10-09T02:18:41.850Z,9.50
2017-10-09T02:21:08.428Z,9.57
2017-10-09T02:23:34.581Z,10.27
2017-10-09T02:26:00.752Z,9.20
2017-10-09T02:28:27.273Z,9.50
2017-10-09T02:30:53.431Z,9.27
2017-10-09T02:33:19.602Z,9.30
2017-10-09T02:35:46.931Z,8.70
2017-10-09T02:38:13.875Z,9.63
2017-10-09T02:40:40.034Z,9.50
2017-10-09T02:43:07.308Z,9.67
2017-10-09T02:45:33.538Z,9.03
2017-10-09T02:47:59.733Z,9.30
2017-10-09T02:50:27.063Z,10.03
2017-10-09T02:52:53.213Z,9.70
2017-10-09T02:55:20.135Z,9.17
2017-10-09T02:57:46.769Z,9.83
2017-10-09T03:00:13.067Z,9.10
2017-10-09T03:02:39.327Z,9.50
2017-10-09T03:05:05.865Z,10.60
2017-10-09T03:07:32.058Z,10.00
2017-10-09T03:09:58.261Z,10.43
2017-10-09T03:12:25.467Z,9.63
2017-10-09T03:14:51.662Z,11.17
2017-10-09T03:17:17.878Z,10.07
2017-10-09T03:19:44.427Z,10.30
2017-10-09T03:22:13.413Z,9.03
2017-10-09T03:27:53.746Z,10.33
2017-10-09T03:30:20.143Z,11.50
2017-10-09T03:32:46.427Z,10.40
2017-10-09T03:35:13.459Z,10.73
2017-10-09T03:37:40.076Z,11.07
2017-10-09T03:40:06.344Z,11.70
2017-10-09T03:42:33.246Z,10.30
2017-10-09T03:44:59.752Z,10.67
2017-10-09T03:47:25.941Z,10.93
2017-10-09T03:49:52.166Z,10.20
2017-10-09T03:52:19.458Z,11.30
2017-10-09T03:54:45.686Z,10.30
2017-10-09T03:57:11.966Z,10.43
2017-10-09T03:59:38.525Z,9.83
2017-10-09T04:02:05.460Z,9.87
2017-10-09T04:04:31.715Z,9.10
2017-10-09T04:06:58.404Z,9.60
2017-10-09T04:09:24.595Z,9.57
2017-10-09T04:11:50.841Z,9.90
2017-10-09T04:14:17.396Z,9.57
2017-10-09T04:16:43.649Z,9.97
2017-10-09T04:19:10.583Z,10.20
2017-10-09T04:21:37.256Z,9.83
2017-10-09T04:24:04.205Z,10.60
2017-10-09T04:26:31.165Z,10.60
2017-10-09T04:28:57.795Z,10.43
2017-10-09T04:31:24.068Z,11.70
2017-10-09T04:33:50.320Z,10.60
2017-10-09T04:36:16.937Z,10.23
2017-10-09T04:38:43.185Z,11.60
2017-10-09T04:41:09.473Z,12.23
2017-10-09T04:43:36.032Z,12.10
2017-10-09T04:46:02.317Z,12.03
2017-10-09T04:48:28.558Z,12.57
2017-10-09T04:50:55.091Z,11.67
2017-10-09T04:53:21.256Z,11.90
2017-10-09T04:55:47.438Z,10.43
2017-10-09T04:58:14.007Z,10.80
2017-10-09T05:00:40.249Z,10.37
2017-10-09T05:03:06.504Z,10.97
2017-10-09T05:05:33.690Z,10.30
2017-10-09T05:07:59.923Z,10.53
2017-10-09T05:10:26.284Z,10.90
2017-10-09T05:12:52.829Z,12.10
2017-10-09T05:15:19.032Z,11.20
2017-10-09T05:17:45.324Z,11.17
2017-10-09T05:20:11.921Z,12.20
2017-10-09T05:22:38.957Z,11.50
2017-10-09T05:25:05.158Z,10.30
2017-10-09T05:27:31.685Z,10.90
2017-10-09T05:29:57.901Z,12.47
2017-10-09T05:32:24.157Z,10.13
2017-10-09T05:34:50.503Z,11.10
2017-10-09T05:37:16.776Z,10.60
2017-10-09T05:39:43.751Z,10.00
2017-10-09T05:42:10.427Z,10.33
2017-10-09T05:44:36.709Z,10.70
2017-10-09T05:47:02.985Z,10.40
2017-10-09T05:49:29.495Z,9.50
2017-10-09T05:51:55.688Z,11.90
2017-10-09T05:54:22.973Z,10.33
2017-10-09T05:56:49.498Z,10.93
2017-10-09T05:59:15.650Z,9.63
2017-10-09T06:01:41.871Z,9.60
2017-10-09T06:04:08.208Z,9.30
2017-10-09T06:06:34.425Z,10.33
2017-10-09T06:09:00.604Z,10.37
2017-10-09T06:11:27.105Z,9.70
2017-10-09T06:13:53.344Z,9.10
2017-10-09T06:16:19.532Z,9.30
2017-10-09T06:18:46.071Z,8.80
2017-10-09T06:21:12.252Z,9.23
2017-10-09T06:23:38.412Z,9.63
2017-10-09T06:26:04.845Z,9.20
2017-10-09T06:28:31.098Z,8.60
2017-10-09T06:30:57.379Z,7.97
2017-10-09T06:33:23.954Z,8.50
2017-10-09T06:35:50.200Z,7.90
2017-10-09T06:38:16.381Z,8.03
2017-10-09T06:40:43.653Z,8.43
2017-10-09T06:43:09.892Z,6.87
2017-10-09T06:45:36.112Z,7.70
2017-10-09T06:48:02.586Z,8.17
2017-10-09T06:50:28.805Z,23.17
2017-10-09T06:52:54.989Z,8.87
2017-10-09T06:55:22.095Z,7.40
2017-10-09T06:57:48.299Z,6.80
2017-10-09T07:00:14.514Z,6.70
2017-10-09T07:02:41.085Z,7.03
2017-10-09T07:05:07.340Z,6.77
2017-10-09T07:07:34.325Z,7.57
2017-10-09T07:10:01.498Z,6.43
2017-10-09T07:12:27.701Z,5.87
2017-10-09T07:14:53.864Z,5.80
2017-10-09T07:17:20.520Z,5.60
2017-10-09T07:19:46.788Z,6.30
2017-10-09T07:22:13.005Z,5.20
2017-10-09T07:24:41.286Z,5.27
2017-10-09T07:27:07.537Z,5.73
2017-10-09T07:29:33.786Z,5.47
2017-10-09T07:32:00.545Z,4.93
2017-10-09T07:34:26.735Z,4.90
2017-10-09T07:36:52.972Z,5.40
2017-10-09T07:39:19.489Z,5.70
2017-10-09T07:41:45.710Z,5.30
2017-10-09T07:44:11.975Z,5.40
2017-10-09T07:46:38.328Z,6.30
2017-10-09T07:49:04.482Z,5.53
2017-10-09T07:51:32.429Z,5.87
2017-10-09T07:53:58.908Z,5.47
2017-10-09T07:56:25.148Z,5.50
2017-10-09T07:58:51.570Z,6.40
2017-10-09T08:01:18.117Z,4.83
2017-10-09T08:03:44.370Z,4.90
2017-10-09T08:06:11.401Z,5.63
2017-10-09T08:08:38.029Z,5.70
2017-10-09T08:11:04.266Z,5.13
2017-10-09T08:13:31.346Z,5.80
2017-10-09T08:15:57.840Z,5.07
2017-10-09T08:18:24.099Z,6.27
2017-10-09T08:20:50.386Z,5.10
2017-10-09T08:23:17.026Z,4.57
2017-10-09T08:25:45.492Z,4.73
2017-10-09T08:28:12.093Z,3.90
2017-10-09T08:30:38.582Z,5.20
2017-10-09T08:33:04.770Z,5.33
2017-10-09T08:35:32.327Z,4.47
2017-10-09T08:37:58.654Z,4.57
2017-10-09T08:40:24.891Z,5.03
2017-10-09T08:42:51.930Z,3.63
2017-10-09T08:47:50.905Z,4.40
2017-10-09T08:55:23.216Z,3.73
2017-10-09T08:57:49.482Z,3.83
2017-10-09T09:02:48.928Z,3.40
2017-10-09T09:10:20.925Z,3.50
2017-10-09T09:12:47.698Z,3.77
2017-10-09T09:20:18.284Z,2.80
2017-10-09T09:22:44.562Z,3.40
2017-10-09T09:25:11.055Z,3.20
2017-10-09T09:32:41.966Z,2.80
2017-10-09T09:40:13.111Z,3.43
2017-10-09T09:42:39.378Z,2.40
2017-10-09T09:45:05.646Z,3.30
2017-10-09T09:52:36.123Z,2.10
2017-10-09T09:55:02.369Z,2.37
2017-10-09T09:57:29.286Z,2.37
2017-10-09T09:59:55.733Z,2.17
2017-10-09T10:02:21.953Z,2.30
2017-10-09T10:04:48.257Z,2.10
2017-10-09T10:07:14.824Z,1.40
2017-10-09T10:09:41.072Z,2.67
2017-10-09T10:12:08.033Z,2.20
2017-10-09T10:14:35.226Z,2.27
2017-10-09T10:17:01.394Z,1.70
2017-10-09T10:19:27.627Z,1.73
2017-10-09T10:21:54.912Z,2.00
2017-10-09T10:24:21.118Z,2.03
2017-10-09T10:26:48.079Z,2.10
2017-10-09T10:29:14.455Z,1.87
2017-10-09T10:31:40.656Z,1.90
2017-10-09T10:34:07.012Z,2.10
2017-10-09T10:36:33.453Z,1.70
2017-10-09T10:38:59.653Z,2.20
2017-10-09T10:41:25.877Z,1.77
2017-10-09T10:43:52.243Z,2.33
2017-10-09T10:46:18.429Z,2.23
2017-10-09T10:48:44.577Z,2.47
2017-10-09T10:51:11.230Z,3.30
2017-10-09T10:53:37.391Z,1.27
2017-10-09T10:56:04.376Z,1.40
2017-10-09T10:58:30.862Z,1.90
2017-10-09T11:00:57.849Z,1.40
2017-10-09T11:03:24.040Z,1.50
2017-10-09T11:05:50.606Z,1.70
2017-10-09T11:08:17.251Z,1.70
2017-10-09T11:10:43.437Z,1.70
2017-10-09T11:13:10.392Z,1.80
2017-10-09T11:15:37.504Z,1.30
2017-10-09T11:18:03.690Z,1.10
2017-10-09T11:20:30.476Z,1.37
2017-10-09T11:22:57.989Z,1.37
2017-10-09T11:25:24.199Z,1.60
2017-10-09T11:27:51.136Z,1.60
2017-10-09T11:30:17.682Z,3.40
2017-10-09T11:32:44.586Z,1.77
2017-10-09T11:35:10.771Z,2.20
2017-10-09T11:37:37.110Z,2.17
2017-10-09T11:40:03.352Z,1.77
2017-10-09T11:42:29.572Z,1.90
2017-10-09T11:44:56.310Z,1.70
2017-10-09T11:47:22.540Z,1.80
2017-10-09T11:49:48.718Z,2.13
2017-10-09T11:52:15.203Z,2.00
2017-10-09T11:54:41.445Z,2.17
2017-10-09T11:57:07.639Z,2.53
2017-10-09T11:59:34.239Z,2.23
2017-10-09T12:02:00.441Z,2.20
2017-10-09T12:04:26.605Z,2.30
2017-10-09T12:06:53.224Z,2.17
2017-10-09T12:09:19.532Z,2.77
2017-10-09T12:11:45.733Z,2.97
2017-10-09T12:14:12.109Z,2.40
2017-10-09T12:16:38.302Z,2.77
2017-10-09T12:19:04.474Z,2.70
2017-10-09T12:21:30.805Z,2.70
2017-10-09T12:23:57.059Z,2.30
2017-10-09T12:26:24.432Z,1.70
2017-10-09T12:28:50.805Z,2.03
2017-10-09T12:31:17.028Z,2.27
2017-10-09T12:33:43.249Z,2.00
2017-10-09T12:36:09.704Z,2.20
2017-10-09T12:38:35.869Z,2.37
2017-10-09T12:41:02.765Z,2.30
2017-10-09T12:43:29.116Z,2.20
2017-10-09T12:45:55.378Z,1.80
2017-10-09T12:48:21.706Z,2.10
2017-10-09T12:50:48.072Z,1.70
2017-10-09T12:53:14.313Z,2.10
2017-10-09T12:55:40.580Z,1.40
2017-10-09T12:58:07.910Z,1.10
2017-10-09T13:00:34.118Z,1.40
2017-10-09T13:03:00.274Z,2.03
2017-10-09T13:05:26.656Z,1.70
2017-10-09T13:07:52.844Z,1.53
2017-10-09T13:10:19.067Z,1.87
2017-10-09T13:12:45.662Z,1.20
2017-10-09T13:15:11.865Z,1.27
2017-10-09T13:17:38.089Z,1.60
2017-10-09T13:20:04.470Z,1.80
2017-10-09T13:22:30.617Z,1.77
2017-10-09T13:24:56.921Z,1.73
2017-10-09T13:27:23.432Z,1.50
2017-10-09T13:29:49.694Z,1.97
2017-10-09T13:32:15.964Z,1.83
2017-10-09T13:34:43.081Z,1.97
2017-10-09T13:37:09.307Z,1.70
2017-10-09T13:39:35.590Z,1.83
2017-10-09T13:42:02.234Z,1.43
2017-10-09T13:44:29.154Z,2.20
2017-10-09T13:49:28.270Z,2.20
2017-10-09T13:54:26.385Z,1.77
2017-10-09T14:01:57.025Z,2.17
2017-10-09T14:04:23.306Z,2.27
2017-10-09T14:09:21.662Z,2.63
2017-10-09T14:14:20.650Z,2.53
2017-10-09T14:16:47.676Z,2.60
2017-10-09T14:21:45.802Z,2.97
2017-10-09T14:24:12.300Z,3.27
2017-10-09T14:26:38.527Z,2.80
2017-10-09T14:41:23.045Z,3.03
2017-10-09T14:43:49.385Z,3.53
2017-10-09T14:46:15.709Z,3.37
2017-10-09T14:48:41.941Z,3.23
2017-10-09T14:51:08.304Z,3.27
2017-10-09T14:53:34.590Z,3.00
2017-10-09T14:56:00.839Z,3.47
2017-10-09T14:58:27.054Z,3.60
2017-10-09T15:00:53.339Z,3.40
2017-10-09T15:03:19.611Z,3.50
2017-10-09T15:05:45.874Z,4.00
2017-10-09T15:08:13.011Z,4.20
2017-10-09T15:10:39.992Z,4.00
2017-10-09T15:13:06.233Z,3.47
2017-10-09T15:15:32.514Z,4.03
2017-10-09T15:17:58.802Z,5.37
2017-10-09T15:20:25.108Z,4.83
2017-10-09T15:22:51.422Z,4.23
2017-10-09T15:25:18.435Z,3.70
2017-10-09T15:27:44.683Z,4.20
2017-10-09T15:30:11.005Z,3.80
2017-10-09T15:32:37.291Z,4.50
2017-10-09T15:35:03.559Z,4.53
2017-10-09T15:37:29.816Z,4.40
2017-10-09T15:39:56.783Z,4.47
2017-10-09T15:42:23.090Z,5.10
2017-10-09T15:44:50.152Z,4.83
2017-10-09T15:47:17.078Z,4.60
2017-10-09T15:49:44.051Z,4.93
2017-10-09T15:52:10.315Z,4.93
2017-10-09T15:54:36.598Z,5.53
2017-10-09T15:57:02.892Z,5.00
2017-10-09T15:59:29.189Z,5.93
2017-10-09T16:01:55.521Z,6.03
2017-10-09T16:04:21.801Z,5.77
2017-10-09T16:06:49.147Z,5.10
2017-10-09T16:09:15.395Z,5.37
2017-10-09T16:11:42.335Z,5.50
2017-10-09T16:14:08.709Z,6.00
2017-10-09T16:16:34.970Z,5.33
2017-10-09T16:19:01.252Z,5.20
2017-10-09T16:21:27.578Z,4.80
2017-10-09T16:23:53.852Z,5.43
2017-10-09T16:26:20.164Z,5.30
2017-10-09T16:28:46.480Z,5.83
2017-10-09T16:31:12.735Z,4.87
2017-10-09T16:33:39.054Z,6.30
2017-10-09T16:36:05.375Z,6.73
2017-10-09T16:38:31.683Z,6.20
2017-10-09T16:40:57.969Z,6.17
2017-10-09T16:43:24.234Z,6.20
2017-10-09T16:45:51.244Z,5.63
2017-10-09T16:48:17.505Z,6.50
2017-10-09T16:50:44.542Z,7.15
2017-10-09T16:53:10.859Z,6.80
2017-10-09T16:55:37.058Z,6.90
2017-10-09T16:58:03.436Z,6.50
2017-10-09T17:00:29.720Z,6.43
2017-10-09T17:02:56.035Z,6.43
2017-10-09T17:05:22.312Z,6.17
2017-10-09T17:07:48.635Z,6.10
2017-10-09T17:10:14.900Z,5.93
2017-10-09T17:12:42.079Z,6.87
2017-10-09T17:15:08.640Z,7.20
2017-10-09T17:17:34.927Z,7.43
2017-10-09T17:20:01.437Z,8.97
2017-10-09T17:22:27.785Z,7.57
2017-10-09T17:24:55.599Z,7.50
2017-10-09T17:27:21.919Z,7.10
2017-10-09T17:29:48.155Z,7.53
2017-10-09T17:32:14.535Z,7.90
2017-10-09T17:34:40.869Z,6.93
2017-10-09T17:37:07.922Z,8.80
2017-10-09T17:39:35.015Z,7.77
2017-10-09T17:42:01.309Z,6.90
2017-10-09T17:44:27.726Z,7.50
2017-10-09T17:46:54.811Z,9.00
2017-10-09T17:49:21.107Z,7.93
2017-10-09T17:51:48.051Z,9.00
2017-10-09T17:54:15.374Z,8.67
2017-10-09T17:56:41.822Z,7.83
2017-10-09T17:59:08.854Z,9.10
2017-10-09T18:01:35.234Z,8.17
2017-10-09T18:04:01.743Z,8.30
2017-10-09T18:06:28.051Z,9.60
2017-10-09T18:08:54.287Z,8.80
2017-10-09T18:11:20.620Z,9.00
2017-10-09T18:13:46.929Z,10.13
2017-10-09T18:16:13.147Z,11.00
2017-10-09T18:18:39.439Z,9.53
2017-10-09T18:21:06.465Z,9.80
2017-10-09T18:23:33.511Z,8.73
2017-10-09T18:25:59.870Z,8.40
2017-10-09T18:28:27.130Z,9.40
2017-10-09T18:30:53.466Z,12.50
2017-10-09T18:33:19.858Z,11.00
2017-10-09T18:35:47.290Z,10.40
2017-10-09T18:38:14.865Z,10.47
2017-10-09T18:40:42.390Z,10.47
2017-10-09T18:43:12.968Z,9.87
2017-10-09T18:45:39.331Z,10.30
2017-10-09T18:48:06.041Z,10.53
2017-10-09T18:50:33.058Z,9.60
2017-10-09T18:52:59.416Z,11.10
2017-10-09T18:55:26.876Z,13.00
2017-10-09T18:57:54.283Z,13.10
2017-10-09T19:00:21.051Z,9.57
2017-10-09T19:02:47.845Z,9.93
2017-10-09T19:05:15.357Z,12.20
2017-10-09T19:07:42.394Z,12.00
2017-10-09T19:10:09.154Z,11.30
2017-10-09T19:12:35.485Z,10.33
2017-10-09T19:15:02.847Z,10.83
2017-10-09T19:17:29.998Z,10.57
2017-10-09T19:19:56.587Z,11.70
2017-10-09T19:22:22.919Z,12.33
2017-10-09T19:24:49.524Z,22.43
2017-10-09T19:27:15.771Z,12.67
2017-10-09T19:29:42.100Z,10.97
2017-10-09T19:32:08.802Z,12.00
2017-10-09T19:34:35.819Z,10.30
2017-10-09T19:37:02.163Z,10.30
2017-10-09T19:39:28.812Z,10.20
2017-10-09T19:41:55.125Z,8.97
2017-10-09T19:44:22.932Z,9.03
2017-10-09T19:46:49.779Z,9.00
2017-10-09T19:49:16.639Z,9.10
2017-10-09T19:51:44.628Z,8.43
2017-10-09T19:54:11.348Z,9.50
2017-10-09T19:56:37.687Z,9.27
2017-10-09T19:59:04.056Z,9.27
2017-10-09T20:01:30.696Z,8.17
2017-10-09T20:03:56.931Z,9.87
2017-10-09T20:06:23.967Z,9.60
2017-10-09T20:08:50.575Z,10.10
2017-10-09T20:11:16.842Z,10.90
2017-10-09T20:13:43.125Z,10.20
2017-10-09T20:16:09.819Z,9.90
2017-10-09T20:18:36.883Z,9.70
2017-10-09T20:21:03.900Z,10.07
2017-10-09T20:23:30.501Z,10.30
2017-10-09T20:25:56.830Z,9.13
2017-10-09T20:28:23.120Z,10.07
2017-10-09T20:30:50.518Z,9.00
2017-10-09T20:33:16.830Z,9.53
2017-10-09T20:35:43.123Z,9.50
2017-10-09T20:38:10.620Z,10.60
2017-10-09T20:40:36.929Z,9.13
2017-10-09T20:43:03.955Z,8.80
2017-10-09T20:45:30.640Z,10.20
2017-10-09T20:47:56.962Z,10.47
2017-10-09T20:50:23.263Z,10.50
2017-10-09T20:52:50.651Z,9.93
2017-10-09T20:55:16.947Z,10.50
2017-10-09T20:57:43.991Z,10.70
2017-10-09T21:00:10.637Z,10.50
2017-10-09T21:02:36.855Z,10.50
2017-10-09T21:05:03.183Z,10.70
2017-10-09T21:07:29.887Z,9.90
2017-10-09T21:09:56.144Z,9.83
2017-10-09T21:12:22.415Z,10.47
2017-10-09T21:14:49.033Z,10.70
2017-10-09T21:17:16.046Z,10.40
2017-10-09T21:19:42.299Z,10.47
2017-10-09T21:22:08.910Z,10.70
2017-10-09T21:24:35.155Z,10.30
2017-10-09T21:27:01.380Z,10.40
2017-10-09T21:29:28.086Z,10.43
2017-10-09T21:31:54.413Z,11.30
2017-10-09T21:34:20.676Z,10.80
2017-10-09T21:36:47.283Z,12.63
2017-10-09T21:39:13.535Z,11.30
2017-10-09T21:41:39.857Z,10.77
2017-10-09T21:44:06.522Z,12.13
2017-10-09T21:46:32.748Z,10.47
2017-10-09T21:48:58.998Z,11.13
2017-10-09T21:51:26.383Z,11.27
2017-10-09T21:53:52.646Z,10.47
2017-10-09T21:56:18.914Z,9.00
2017-10-09T21:58:46.195Z,10.10
2017-10-09T22:01:12.489Z,10.17
2017-10-09T22:03:39.538Z,10.47
2017-10-09T22:06:06.925Z,9.90
2017-10-09T22:08:33.194Z,10.20
2017-10-09T22:10:59.458Z,10.10
2017-10-09T22:13:26.941Z,9.13
2017-10-09T22:15:53.198Z,10.00
2017-10-09T22:18:19.404Z,9.63
2017-10-09T22:20:46.133Z,10.50
2017-10-09T22:23:12.415Z,10.47
2017-10-09T22:25:38.687Z,9.97
2017-10-09T22:28:05.342Z,9.17
2017-10-09T22:30:31.696Z,10.20
2017-10-09T22:32:58.023Z,9.83
2017-10-09T22:35:24.745Z,8.90
2017-10-09T22:37:51.036Z,11.20
2017-10-09T22:40:17.271Z,10.10
2017-10-09T22:42:44.762Z,9.30
2017-10-09T22:45:11.045Z,10.93
2017-10-09T22:47:37.306Z,10.37
2017-10-09T22:50:04.010Z,9.20
2017-10-09T22:52:30.991Z,10.90
2017-10-09T22:54:57.280Z,11.63
2017-10-09T22:57:23.927Z,11.13
2017-10-09T22:59:50.179Z,12.40
2017-10-09T23:02:17.166Z,11.10
2017-10-09T23:04:43.805Z,11.03
2017-10-09T23:07:10.088Z,11.73
2017-10-09T23:09:37.115Z,11.27
2017-10-09T23:12:03.758Z,11.10
2017-10-09T23:14:30.002Z,12.27
2017-10-09T23:16:56.992Z,10.90
2017-10-09T23:19:23.715Z,11.53
2017-10-09T23:21:50.004Z,11.00
2017-10-09T23:24:16.220Z,10.60
2017-10-09T23:26:42.866Z,12.33
2017-10-09T23:29:09.170Z,11.43
2017-10-09T23:31:35.479Z,10.27
2017-10-09T23:34:02.206Z,11.57
2017-10-09T23:36:28.450Z,12.43
2017-10-09T23:38:54.734Z,11.73
2017-10-09T23:41:22.119Z,12.60
2017-10-09T23:43:48.369Z,13.57
2017-10-09T23:46:14.601Z,10.90
2017-10-09T23:48:41.315Z,11.77
2017-10-09T23:51:07.636Z,12.03
2017-10-09T23:53:33.890Z,13.47
2017-10-09T23:56:00.575Z,14.00
2017-10-09T23:58:26.831Z,12.63
